메인 페이지
METAR-TAF:

METAR-TAF

공항 :

다르에스살람, 탄자니아

위도: 06-52S, 경도: 039-12E, 고도: 55m

현재 날씨관측

예보는 1 시간 6분 전, 02:00시(UTC)에 발표되었습니다.
무풍
온도 22°C
습도 94%
기압 1015 hPa
시정 10km 이상
고도 1200ft 상공 구름 조금

METAR: HTDA 160200Z 00000KT 9999 FEW012 22/21 Q1015 NOSIG

시각: 06:06 (03:06 UTC)

예보

예보는 4 시간 6분 전, 23:00시(UTC)에 발표되었습니다.
예보 대상 시간: 16일 00시부터 17일 06시까지 (UTC)
5kt
시정 10km 이상
고도 1200ft 상공 구름 보통
전환 중
16일 06시부터 16일 09시까지 (UTC)
고도 2000ft 상공 구름 많음
전환 중
16일 10시부터 16일 13시까지 (UTC)
남동15kt

TAF: HTDA 152300Z 1600/1706 17005KT 9999 SCT012 BECMG 1606/1609 BKN020 BECMG 1610/1613 14015KT

4,000개 이상의 공항 관측 자료 및 예보 (METAR 및 TAF 보고).

지도상에서 검색 가능한 기상관측소가 노란 점과 빨간 점으로 표시되어 있습니다.

기상관측소 명을 보려면 표시 위로 마우스를 이동하세요.

날씨 관측과 예보를 보려면 클릭하세요.

지도 변경 : 확대하려면 엑스 표시가 있는 녹색 버튼, 축소하려면 빼기 표시가 있는 녹색 버튼, 다음 페이지의 지도를 보려면 녹색 화살표를 클릭하세요.


METAR-TAF: